createdAt,value
2018-01-13T00:00:14.531Z,31.87
2018-01-13T00:02:42.147Z,34.77
2018-01-13T00:05:09.750Z,29.97
2018-01-13T00:07:37.335Z,32.70
2018-01-13T00:10:04.946Z,33.87
2018-01-13T00:12:33.411Z,33.60
2018-01-13T00:15:00.995Z,33.30
2018-01-13T00:17:29.451Z,37.43
2018-01-13T00:19:57.106Z,32.70
2018-01-13T00:22:24.784Z,33.83
2018-01-13T00:24:52.439Z,31.60
2018-01-13T00:27:20.047Z,33.67
2018-01-13T00:29:47.631Z,34.93
2018-01-13T00:32:15.239Z,36.60
2018-01-13T00:34:43.590Z,32.40
2018-01-13T00:37:11.199Z,38.93
2018-01-13T00:39:39.555Z,37.53
2018-01-13T00:42:07.163Z,36.27
2018-01-13T00:44:34.750Z,38.13
2018-01-13T00:47:02.430Z,39.07
2018-01-13T00:49:30.008Z,38.57
2018-01-13T00:51:58.450Z,36.03
2018-01-13T00:54:26.047Z,35.77
2018-01-13T00:56:54.407Z,36.57
2018-01-13T00:59:22.014Z,38.83
2018-01-13T01:01:49.603Z,31.27
2018-01-13T01:04:17.214Z,37.37
2018-01-13T01:06:45.567Z,40.80
2018-01-13T01:09:13.174Z,35.67
2018-01-13T01:11:40.794Z,41.53
2018-01-13T01:14:08.403Z,35.27
2018-01-13T01:16:36.002Z,43.27
2018-01-13T01:19:03.799Z,38.23
2018-01-13T01:21:31.450Z,38.87
2018-01-13T01:23:59.111Z,38.57
2018-01-13T01:26:26.690Z,41.23
2018-01-13T01:28:55.155Z,38.53
2018-01-13T01:31:22.819Z,39.40
2018-01-13T01:33:50.433Z,40.13
2018-01-13T01:36:18.015Z,38.40
2018-01-13T01:38:45.627Z,40.23
2018-01-13T01:41:13.978Z,41.10
2018-01-13T01:43:41.587Z,36.73
2018-01-13T01:46:09.207Z,38.83
2018-01-13T01:48:36.848Z,37.03
2018-01-13T01:51:04.535Z,37.30
2018-01-13T01:53:32.122Z,34.90
2018-01-13T01:56:00.498Z,38.37
2018-01-13T01:58:28.856Z,37.13
2018-01-13T02:00:56.474Z,36.60
2018-01-13T02:03:24.076Z,36.70
2018-01-13T02:05:51.683Z,34.03
2018-01-13T02:08:19.263Z,37.30
2018-01-13T02:10:46.871Z,31.00
2018-01-13T02:13:14.519Z,28.43
2018-01-13T02:15:42.122Z,34.93
2018-01-13T02:18:09.743Z,34.93
2018-01-13T02:20:37.400Z,33.90
2018-01-13T02:23:05.066Z,36.50
2018-01-13T02:25:34.175Z,39.63
2018-01-13T02:28:01.760Z,37.27
2018-01-13T02:30:30.207Z,37.97
2018-01-13T02:32:57.871Z,37.83
2018-01-13T02:35:25.453Z,37.00
2018-01-13T02:37:53.823Z,38.33
2018-01-13T02:40:21.407Z,39.43
2018-01-13T02:42:49.015Z,41.10
2018-01-13T02:45:16.695Z,37.50
2018-01-13T02:47:44.359Z,30.73
2018-01-13T02:50:11.952Z,35.77
2018-01-13T02:52:40.335Z,37.13
2018-01-13T02:55:07.963Z,35.40
2018-01-13T02:57:35.628Z,32.90
2018-01-13T03:00:03.225Z,30.67
2018-01-13T03:02:30.846Z,36.80
2018-01-13T03:04:58.503Z,33.63
2018-01-13T03:07:26.183Z,36.30
2018-01-13T03:09:53.839Z,18.40
2018-01-13T03:12:21.457Z,35.53
2018-01-13T03:14:49.042Z,37.03
2018-01-13T03:17:16.723Z,39.30
2018-01-13T03:19:44.388Z,31.87
2018-01-13T03:22:12.047Z,33.13
2018-01-13T03:24:39.710Z,37.20
2018-01-13T03:27:07.376Z,37.27
2018-01-13T03:29:34.983Z,34.73
2018-01-13T03:32:02.699Z,36.55
2018-01-13T03:34:31.100Z,28.52
2018-01-13T03:36:59.562Z,36.90
2018-01-13T03:39:27.227Z,35.67
2018-01-13T03:41:54.892Z,33.77
2018-01-13T03:44:22.546Z,35.33
2018-01-13T03:46:50.130Z,34.67
2018-01-13T03:49:18.600Z,36.40
2018-01-13T03:51:46.182Z,25.80
2018-01-13T03:54:14.567Z,38.80
2018-01-13T03:56:42.152Z,36.10
2018-01-13T03:59:09.772Z,36.90
2018-01-13T04:01:38.124Z,27.60
2018-01-13T04:04:05.730Z,31.67
2018-01-13T04:06:34.184Z,36.60
2018-01-13T04:09:01.774Z,34.93
2018-01-13T04:11:29.399Z,33.83
2018-01-13T04:13:57.064Z,29.47
2018-01-13T04:16:24.723Z,31.10
2018-01-13T04:18:52.434Z,32.50
2018-01-13T04:21:20.054Z,35.10
2018-01-13T04:23:47.649Z,35.00
2018-01-13T04:26:15.275Z,29.40
2018-01-13T04:28:42.920Z,22.63
2018-01-13T04:31:10.540Z,25.60
2018-01-13T04:33:38.127Z,32.20
2018-01-13T04:36:05.832Z,33.00
2018-01-13T04:38:33.487Z,30.20
2018-01-13T04:41:01.146Z,28.50
2018-01-13T04:43:29.536Z,32.03
2018-01-13T04:45:57.142Z,26.30
2018-01-13T04:48:24.724Z,32.13
2018-01-13T04:50:52.422Z,36.27
2018-01-13T04:53:20.040Z,36.33
2018-01-13T04:55:47.655Z,33.83
2018-01-13T04:58:16.128Z,30.13
2018-01-13T05:00:43.719Z,34.03
2018-01-13T05:03:11.323Z,31.63
2018-01-13T05:05:38.920Z,34.37
2018-01-13T05:08:07.392Z,32.47
2018-01-13T05:10:35.056Z,33.23
2018-01-13T05:13:02.711Z,27.90
2018-01-13T05:15:31.065Z,31.40
2018-01-13T05:17:58.684Z,31.50
2018-01-13T05:20:27.036Z,33.80
2018-01-13T05:22:54.655Z,21.50
2018-01-13T05:25:22.255Z,27.90
2018-01-13T05:27:50.630Z,32.28
2018-01-13T05:30:18.303Z,24.77
2018-01-13T05:32:45.958Z,34.47
2018-01-13T05:35:13.565Z,25.87
2018-01-13T05:37:41.182Z,31.97
2018-01-13T05:40:08.807Z,29.00
2018-01-13T05:42:36.406Z,28.40
2018-01-13T05:45:04.023Z,24.50
2018-01-13T05:47:31.635Z,26.87
2018-01-13T05:49:59.274Z,29.10
2018-01-13T05:52:26.955Z,30.83
2018-01-13T05:54:54.619Z,28.00
2018-01-13T05:57:23.008Z,30.37
2018-01-13T05:59:50.715Z,28.80
2018-01-13T06:02:18.287Z,25.60
2018-01-13T06:04:45.992Z,29.77
2018-01-13T06:07:13.656Z,27.98
2018-01-13T06:09:41.269Z,30.17
2018-01-13T06:12:08.975Z,31.55
2018-01-13T06:14:36.586Z,25.00
2018-01-13T06:17:04.171Z,28.77
2018-01-13T06:19:31.860Z,29.13
2018-01-13T06:21:59.523Z,28.83
2018-01-13T06:24:27.109Z,29.10
2018-01-13T06:26:55.479Z,28.90
2018-01-13T06:29:23.134Z,29.58
2018-01-13T06:31:51.616Z,24.63
2018-01-13T06:34:19.202Z,21.20
2018-01-13T06:36:46.940Z,29.27
2018-01-13T06:39:14.641Z,26.77
2018-01-13T06:41:43.008Z,30.13
2018-01-13T06:44:10.632Z,29.65
2018-01-13T06:46:38.243Z,28.93
2018-01-13T06:49:05.860Z,28.65
2018-01-13T06:51:33.535Z,28.17
2018-01-13T06:54:02.011Z,19.47
2018-01-13T06:56:29.618Z,25.93
2018-01-13T06:58:57.211Z,26.63
2018-01-13T07:01:24.807Z,27.80
2018-01-13T07:03:53.270Z,28.73
2018-01-13T07:06:20.859Z,23.67
2018-01-13T07:08:49.324Z,28.60
2018-01-13T07:11:16.910Z,28.80
2018-01-13T07:13:45.364Z,27.60
2018-01-13T07:16:12.959Z,27.53
2018-01-13T07:18:40.567Z,23.13
2018-01-13T07:21:08.160Z,24.60
2018-01-13T07:23:36.623Z,26.90
2018-01-13T07:26:04.287Z,28.27
2018-01-13T07:28:31.955Z,27.83
2018-01-13T07:30:59.552Z,24.30
2018-01-13T07:33:27.283Z,23.73
2018-01-13T07:35:54.934Z,26.07
2018-01-13T07:38:23.288Z,24.43
2018-01-13T07:40:50.896Z,26.77
2018-01-13T07:43:19.368Z,26.00
2018-01-13T07:45:46.984Z,26.27
2018-01-13T07:48:14.576Z,25.57
2018-01-13T07:50:42.243Z,25.77
2018-01-13T07:53:09.862Z,26.37
2018-01-13T07:55:37.471Z,22.20
2018-01-13T07:58:05.131Z,20.27
2018-01-13T08:00:32.738Z,22.90
2018-01-13T08:03:00.359Z,21.30
2018-01-13T08:05:28.734Z,23.87
2018-01-13T08:07:56.400Z,21.27
2018-01-13T08:10:24.059Z,22.17
2018-01-13T08:12:52.414Z,23.50
2018-01-13T08:15:20.113Z,22.37
2018-01-13T08:17:47.764Z,22.03
2018-01-13T08:20:15.429Z,22.10
2018-01-13T08:22:43.039Z,18.30
2018-01-13T08:25:10.652Z,20.83
2018-01-13T08:27:38.324Z,15.57
2018-01-13T08:30:05.907Z,21.27
2018-01-13T08:32:33.528Z,21.43
2018-01-13T08:35:01.211Z,15.50
2018-01-13T08:37:28.871Z,15.03
2018-01-13T08:39:57.226Z,19.07
2018-01-13T08:42:24.838Z,18.73
2018-01-13T08:44:53.289Z,18.83
2018-01-13T08:47:21.724Z,18.00
2018-01-13T08:49:49.336Z,17.50
2018-01-13T08:52:17.041Z,11.73
2018-01-13T08:54:44.612Z,17.33
2018-01-13T08:57:12.315Z,16.80
2018-01-13T08:59:39.911Z,11.40
2018-01-13T09:02:08.283Z,18.10
2018-01-13T09:04:36.631Z,15.77
2018-01-13T09:07:04.299Z,11.47
2018-01-13T09:09:31.959Z,15.50
2018-01-13T09:11:59.547Z,13.17
2018-01-13T09:14:27.928Z,15.33
2018-01-13T09:16:56.392Z,10.27
2018-01-13T09:19:24.047Z,9.10
2018-01-13T09:21:52.399Z,12.27
2018-01-13T09:24:20.012Z,13.70
2018-01-13T09:26:48.368Z,9.83
2018-01-13T09:29:16.748Z,13.60
2018-01-13T09:31:44.333Z,12.90
2018-01-13T09:34:12.787Z,12.20
2018-01-13T09:36:40.380Z,11.37
2018-01-13T09:39:08.768Z,9.50
2018-01-13T09:41:36.400Z,11.70
2018-01-13T09:44:04.055Z,10.83
2018-01-13T09:46:31.738Z,11.23
2018-01-13T09:49:00.108Z,10.63
2018-01-13T09:51:27.759Z,9.17
2018-01-13T09:53:55.353Z,8.13
2018-01-13T09:56:23.808Z,8.30
2018-01-13T09:58:51.733Z,8.60
2018-01-13T10:01:19.440Z,10.97
2018-01-13T10:03:47.104Z,8.10
2018-01-13T10:06:14.763Z,9.13
2018-01-13T10:08:42.423Z,8.27
2018-01-13T10:11:10.036Z,7.93
2018-01-13T10:13:37.652Z,9.40
2018-01-13T10:16:05.259Z,8.70
2018-01-13T10:18:32.852Z,7.43
2018-01-13T10:21:00.462Z,9.63
2018-01-13T10:23:28.819Z,8.93
2018-01-13T10:25:56.477Z,6.17
2018-01-13T10:28:24.136Z,7.60
2018-01-13T10:30:51.737Z,9.70
2018-01-13T10:33:19.359Z,9.67
2018-01-13T10:35:47.023Z,9.57
2018-01-13T10:38:14.637Z,8.33
2018-01-13T10:40:42.247Z,6.43
2018-01-13T10:43:09.851Z,9.40
2018-01-13T10:45:37.439Z,9.20
2018-01-13T10:48:05.127Z,8.80
2018-01-13T10:50:34.124Z,8.70
2018-01-13T10:53:01.787Z,6.57
2018-01-13T10:55:29.362Z,6.73
2018-01-13T10:57:56.968Z,6.60
2018-01-13T11:00:24.580Z,7.13
2018-01-13T11:02:52.300Z,7.37
2018-01-13T11:05:19.912Z,6.03
2018-01-13T11:07:48.275Z,6.10
2018-01-13T11:10:15.884Z,6.50
2018-01-13T11:12:43.462Z,7.43
2018-01-13T11:15:11.824Z,4.53
2018-01-13T11:17:39.406Z,5.37
2018-01-13T11:20:07.015Z,6.17
2018-01-13T11:22:34.659Z,5.90
2018-01-13T11:25:03.060Z,5.18
2018-01-13T11:27:31.412Z,4.30
2018-01-13T11:29:59.087Z,6.10
2018-01-13T11:32:26.671Z,4.90
2018-01-13T11:34:55.125Z,4.70
2018-01-13T11:37:22.792Z,5.87
2018-01-13T11:39:50.446Z,6.43
2018-01-13T11:42:18.032Z,4.47
2018-01-13T11:44:46.379Z,6.50
2018-01-13T11:47:14.055Z,7.10
2018-01-13T11:49:41.632Z,4.80
2018-01-13T11:52:10.008Z,6.27
2018-01-13T11:54:37.591Z,6.60
2018-01-13T11:57:05.972Z,8.40
2018-01-13T11:59:33.610Z,6.45
2018-01-13T12:02:01.267Z,7.20
2018-01-13T12:04:28.846Z,8.33
2018-01-13T12:06:57.221Z,7.83
2018-01-13T12:09:25.687Z,7.93
2018-01-13T12:11:53.347Z,8.37
2018-01-13T12:14:21.011Z,8.17
2018-01-13T12:16:48.629Z,6.23
2018-01-13T12:19:16.240Z,8.20
2018-01-13T12:21:43.885Z,9.20
2018-01-13T12:24:11.467Z,8.83
2018-01-13T12:26:39.071Z,8.10
2018-01-13T12:29:06.688Z,9.70
2018-01-13T12:31:34.343Z,8.70
2018-01-13T12:34:02.827Z,9.43
2018-01-13T12:36:30.412Z,7.50
2018-01-13T12:38:58.873Z,8.80
2018-01-13T12:41:27.357Z,9.65
2018-01-13T12:43:55.823Z,7.27
2018-01-13T12:46:24.220Z,7.97
2018-01-13T12:48:51.847Z,8.88
2018-01-13T12:51:19.535Z,9.32
2018-01-13T12:53:47.931Z,9.52
2018-01-13T12:56:15.543Z,9.75
2018-01-13T12:58:43.176Z,9.15
2018-01-13T13:01:10.768Z,9.13
2018-01-13T13:03:38.384Z,9.20
2018-01-13T13:06:06.030Z,8.40
2018-01-13T13:08:33.696Z,10.00
2018-01-13T13:11:01.307Z,9.57
2018-01-13T13:13:29.020Z,9.23
2018-01-13T13:15:56.671Z,7.20
2018-01-13T13:18:24.339Z,8.10
2018-01-13T13:20:52.715Z,9.23
2018-01-13T13:23:20.388Z,11.40
2018-01-13T13:25:48.055Z,9.83
2018-01-13T13:28:15.648Z,11.00
2018-01-13T13:30:43.255Z,9.40
2018-01-13T13:33:10.937Z,10.10
2018-01-13T13:35:38.550Z,10.00
2018-01-13T13:38:06.173Z,10.40
2018-01-13T13:40:34.556Z,9.80
2018-01-13T13:43:02.920Z,12.10
2018-01-13T13:45:31.310Z,9.65
2018-01-13T13:47:58.923Z,9.00
2018-01-13T13:50:26.624Z,11.50
2018-01-13T13:52:54.216Z,11.47
2018-01-13T13:55:21.832Z,12.93
2018-01-13T13:57:49.424Z,11.83
2018-01-13T14:00:17.883Z,10.60
2018-01-13T14:02:45.468Z,10.93
2018-01-13T14:05:13.108Z,12.98
2018-01-13T14:07:41.806Z,11.90
2018-01-13T14:10:10.163Z,11.67
2018-01-13T14:12:38.575Z,12.50
2018-01-13T14:15:07.002Z,12.23
2018-01-13T14:17:34.695Z,14.00
2018-01-13T14:20:03.080Z,12.67
2018-01-13T14:22:30.748Z,14.93
2018-01-13T14:24:58.368Z,12.43
2018-01-13T14:27:26.071Z,13.02
2018-01-13T14:29:54.451Z,12.63
2018-01-13T14:32:22.064Z,12.50
2018-01-13T14:34:49.684Z,14.57
2018-01-13T14:37:18.059Z,14.00
2018-01-13T14:39:46.524Z,12.63
2018-01-13T14:42:14.201Z,13.80
2018-01-13T14:44:41.876Z,10.95
2018-01-13T14:47:09.624Z,12.73
2018-01-13T14:49:37.220Z,14.60
2018-01-13T14:52:04.947Z,15.25
2018-01-13T14:54:32.543Z,13.47
2018-01-13T14:57:00.275Z,13.13
2018-01-13T14:59:29.435Z,13.20
2018-01-13T15:01:57.024Z,12.00
2018-01-13T15:04:24.694Z,13.50
2018-01-13T15:06:52.287Z,13.50
2018-01-13T15:09:20.734Z,11.10
2018-01-13T15:11:49.115Z,11.27
2018-01-13T15:14:16.723Z,10.23
2018-01-13T15:16:44.336Z,11.20
2018-01-13T15:19:12.740Z,13.25
2018-01-13T15:21:41.208Z,12.90
2018-01-13T15:24:08.821Z,12.57
2018-01-13T15:26:36.435Z,12.90
2018-01-13T15:29:04.044Z,8.03
2018-01-13T15:31:31.655Z,10.98
2018-01-13T15:33:59.274Z,11.43
2018-01-13T15:36:27.665Z,11.50
2018-01-13T15:38:55.283Z,14.17
2018-01-13T15:41:23.634Z,11.53
2018-01-13T15:43:51.255Z,12.60
2018-01-13T15:46:18.954Z,10.13
2018-01-13T15:48:47.339Z,12.07
2018-01-13T15:51:14.999Z,12.77
2018-01-13T15:53:43.384Z,11.05
2018-01-13T15:56:11.047Z,11.20
2018-01-13T15:58:38.703Z,10.07
2018-01-13T16:01:06.376Z,10.10
2018-01-13T16:03:34.035Z,11.70
2018-01-13T16:06:01.650Z,10.50
2018-01-13T16:08:29.237Z,11.83
2018-01-13T16:10:56.924Z,10.50
2018-01-13T16:13:24.511Z,12.90
2018-01-13T16:15:52.123Z,12.20
2018-01-13T16:18:19.804Z,13.97
2018-01-13T16:20:47.477Z,11.47
2018-01-13T16:23:15.827Z,8.63
2018-01-13T16:25:43.516Z,11.13
2018-01-13T16:28:11.112Z,10.73
2018-01-13T16:30:38.719Z,12.77
2018-01-13T16:33:06.391Z,10.60
2018-01-13T16:35:33.995Z,10.73
2018-01-13T16:38:01.624Z,11.80
2018-01-13T16:40:29.279Z,11.90
2018-01-13T16:42:56.943Z,10.73
2018-01-13T16:45:24.603Z,10.60
2018-01-13T16:47:52.215Z,10.53
2018-01-13T16:50:19.827Z,10.70
2018-01-13T16:52:47.808Z,11.07
2018-01-13T16:55:15.378Z,9.37
2018-01-13T16:57:43.764Z,11.50
2018-01-13T17:00:12.119Z,10.63
2018-01-13T17:02:40.500Z,9.80
2018-01-13T17:05:09.600Z,8.43
2018-01-13T17:07:37.981Z,8.73
2018-01-13T17:10:05.579Z,9.73
2018-01-13T17:12:33.955Z,9.75
2018-01-13T17:15:01.571Z,8.47
2018-01-13T17:17:29.184Z,9.60
2018-01-13T17:19:56.767Z,10.20
2018-01-13T17:22:24.380Z,9.50
2018-01-13T17:24:52.727Z,7.10
2018-01-13T17:27:20.314Z,10.47
2018-01-13T17:29:47.968Z,10.10
2018-01-13T17:32:15.632Z,9.50
2018-01-13T17:34:43.246Z,10.10
2018-01-13T17:37:10.951Z,10.50
2018-01-13T17:39:38.616Z,10.07
2018-01-13T17:42:06.279Z,9.90
2018-01-13T17:44:33.886Z,10.40
2018-01-13T17:47:01.472Z,11.23
2018-01-13T17:49:29.169Z,11.40
2018-01-13T17:51:56.761Z,9.73
2018-01-13T17:54:24.487Z,12.33
2018-01-13T17:56:52.151Z,10.73
2018-01-13T17:59:19.815Z,9.47
2018-01-13T18:01:47.400Z,10.80
2018-01-13T18:04:15.780Z,10.40
2018-01-13T18:06:44.135Z,10.23
2018-01-13T18:09:11.718Z,12.50
2018-01-13T18:11:40.175Z,11.80
2018-01-13T18:14:09.284Z,11.87
2018-01-13T18:16:36.897Z,10.80
2018-01-13T18:19:04.614Z,12.20
2018-01-13T18:21:33.083Z,10.83
2018-01-13T18:24:00.743Z,11.80
2018-01-13T18:26:28.407Z,8.73
2018-01-13T18:28:55.999Z,10.67
2018-01-13T18:31:24.456Z,11.83
2018-01-13T18:33:52.111Z,9.30
2018-01-13T18:36:19.724Z,10.70
2018-01-13T18:38:47.339Z,10.20
2018-01-13T18:41:14.943Z,10.70
2018-01-13T18:43:42.530Z,11.50
2018-01-13T18:46:10.142Z,12.27
2018-01-13T18:48:38.601Z,11.90
2018-01-13T18:51:06.224Z,12.30
2018-01-13T18:53:33.815Z,10.93
2018-01-13T18:56:01.492Z,12.60
2018-01-13T18:58:29.079Z,14.43
2018-01-13T19:00:57.432Z,9.40
2018-01-13T19:03:25.087Z,11.80
2018-01-13T19:05:52.757Z,12.93
2018-01-13T19:08:20.415Z,11.20
2018-01-13T19:10:48.080Z,10.47
2018-01-13T19:13:15.738Z,13.27
2018-01-13T19:15:43.408Z,12.50
2018-01-13T19:18:11.027Z,12.17
2018-01-13T19:20:38.606Z,13.20
2018-01-13T19:23:06.222Z,14.50
2018-01-13T19:25:33.807Z,13.10
2018-01-13T19:28:01.416Z,14.50
2018-01-13T19:30:29.071Z,13.40
2018-01-13T19:32:56.735Z,13.50
2018-01-13T19:35:24.408Z,14.03
2018-01-13T19:37:51.999Z,16.83
2018-01-13T19:40:19.606Z,13.67
2018-01-13T19:42:47.228Z,16.07
2018-01-13T19:45:14.951Z,14.90
2018-01-13T19:47:43.312Z,14.20
2018-01-13T19:50:10.996Z,14.30
2018-01-13T19:52:38.656Z,14.57
2018-01-13T19:55:06.276Z,14.90
2018-01-13T19:57:33.872Z,15.60
2018-01-13T20:00:01.544Z,13.70
2018-01-13T20:02:29.208Z,12.07
2018-01-13T20:04:56.815Z,13.97
2018-01-13T20:07:24.412Z,13.47
2018-01-13T20:09:52.086Z,11.57
2018-01-13T20:12:19.675Z,14.73
2018-01-13T20:14:48.135Z,12.83
2018-01-13T20:17:15.794Z,14.17
2018-01-13T20:19:43.456Z,13.93
2018-01-13T20:22:11.047Z,14.67
2018-01-13T20:24:39.501Z,14.43
2018-01-13T20:27:07.168Z,14.80
2018-01-13T20:29:34.826Z,14.37
2018-01-13T20:32:02.492Z,14.40
2018-01-13T20:34:30.146Z,11.50
2018-01-13T20:36:57.759Z,13.23
2018-01-13T20:39:25.471Z,13.40
2018-01-13T20:41:53.866Z,14.07
2018-01-13T20:44:21.447Z,15.00
2018-01-13T20:46:49.899Z,13.40
2018-01-13T20:49:17.560Z,15.03
2018-01-13T20:51:46.048Z,13.70
2018-01-13T20:54:13.707Z,11.50
2018-01-13T20:56:41.368Z,10.07
2018-01-13T20:59:08.951Z,11.17
2018-01-13T21:01:37.391Z,11.83
2018-01-13T21:04:05.070Z,12.20
2018-01-13T21:06:32.735Z,12.67
2018-01-13T21:09:00.329Z,13.93
2018-01-13T21:11:27.939Z,14.67
2018-01-13T21:13:55.619Z,14.53
2018-01-13T21:16:24.744Z,14.30
2018-01-13T21:18:53.104Z,13.67
2018-01-13T21:21:20.752Z,14.93
2018-01-13T21:23:48.334Z,14.67
2018-01-13T21:26:16.721Z,14.00
2018-01-13T21:28:45.091Z,12.53
2018-01-13T21:31:12.743Z,14.30
2018-01-13T21:33:40.413Z,14.20
2018-01-13T21:36:08.076Z,12.20
2018-01-13T21:38:35.730Z,14.50
2018-01-13T21:41:03.396Z,15.57
2018-01-13T21:43:31.018Z,13.23
2018-01-13T21:45:58.615Z,14.10
2018-01-13T21:48:26.285Z,14.40
2018-01-13T21:50:54.763Z,10.17
2018-01-13T21:53:23.253Z,11.87
2018-01-13T21:55:50.841Z,11.23
2018-01-13T21:58:18.455Z,10.27
2018-01-13T22:00:46.044Z,11.03
2018-01-13T22:03:14.577Z,12.50
2018-01-13T22:05:42.275Z,11.17
2018-01-13T22:08:09.891Z,12.83
2018-01-13T22:10:37.513Z,11.37
2018-01-13T22:13:05.980Z,12.03
2018-01-13T22:15:33.572Z,10.57
2018-01-13T22:18:01.208Z,13.20
2018-01-13T22:20:28.871Z,12.50
2018-01-13T22:22:56.459Z,12.53
2018-01-13T22:25:24.856Z,11.80
2018-01-13T22:27:52.475Z,13.70
2018-01-13T22:30:20.140Z,12.53
2018-01-13T22:32:47.795Z,13.00
2018-01-13T22:35:15.464Z,11.30
2018-01-13T22:37:43.128Z,11.70
2018-01-13T22:40:10.783Z,12.37
2018-01-13T22:42:38.369Z,12.60
2018-01-13T22:45:06.740Z,13.97
2018-01-13T22:47:35.212Z,12.00
2018-01-13T22:50:02.873Z,12.43
2018-01-13T22:52:30.468Z,13.30
2018-01-13T22:54:58.055Z,13.37
2018-01-13T22:57:25.671Z,14.17
2018-01-13T22:59:54.019Z,14.00
2018-01-13T23:02:21.699Z,13.93
2018-01-13T23:04:50.899Z,12.00
2018-01-13T23:07:18.513Z,12.97
2018-01-13T23:09:46.119Z,12.90
2018-01-13T23:12:13.784Z,13.87
2018-01-13T23:14:41.492Z,12.37
2018-01-13T23:17:09.108Z,13.63
2018-01-13T23:19:36.767Z,13.97
2018-01-13T23:22:04.437Z,15.00
2018-01-13T23:24:32.032Z,13.27
2018-01-13T23:26:59.655Z,13.70
2018-01-13T23:29:27.278Z,11.97
2018-01-13T23:31:55.002Z,13.83
2018-01-13T23:34:23.359Z,12.60
2018-01-13T23:36:51.021Z,11.90
2018-01-13T23:39:18.692Z,13.37
2018-01-13T23:41:46.351Z,15.30
2018-01-13T23:44:13.972Z,14.40
2018-01-13T23:46:41.555Z,12.43
2018-01-13T23:49:09.235Z,13.23
2018-01-13T23:51:37.632Z,13.43
2018-01-13T23:54:06.019Z,14.30
2018-01-13T23:56:34.377Z,13.03
2018-01-13T23:59:02.037Z,13.97
